sensor_id;sensor_type;location;lat;lon;timestamp;pressure;altitude;pressure_sealevel;temperature;humidity
75942;BME280;64622;46.220;19.878;2024-03-06T00:00:51;100237.06;;;8.18;100.00
75942;BME280;64622;46.220;19.878;2024-03-06T00:03:18;100255.31;;;8.22;100.00
75942;BME280;64622;46.220;19.878;2024-03-06T00:05:45;100244.34;;;8.15;100.00
75942;BME280;64622;46.220;19.878;2024-03-06T00:08:11;100245.78;;;8.10;100.00
75942;BME280;64622;46.220;19.878;2024-03-06T00:10:38;100245.47;;;8.13;100.00
75942;BME280;64622;46.220;19.878;2024-03-06T00:13:04;100251.41;;;8.17;100.00
75942;BME280;64622;46.220;19.878;2024-03-06T00:15:31;100240.87;;;8.05;100.00
75942;BME280;64622;46.220;19.878;2024-03-06T00:17:58;100258.56;;;8.07;100.00
75942;BME280;64622;46.220;19.878;2024-03-06T00:20:25;100250.44;;;7.98;100.00
75942;BME280;64622;46.220;19.878;2024-03-06T00:22:51;100255.75;;;8.08;100.00
75942;BME280;64622;46.220;19.878;2024-03-06T00:25:18;100255.06;;;8.06;100.00
75942;BME280;64622;46.220;19.878;2024-03-06T00:27:45;100250.59;;;7.97;100.00
75942;BME280;64622;46.220;19.878;2024-03-06T00:30:11;100254.09;;;7.97;100.00
75942;BME280;64622;46.220;19.878;2024-03-06T00:32:38;100250.59;;;7.87;100.00
75942;BME280;64622;46.220;19.878;2024-03-06T00:35:05;100246.41;;;7.85;100.00
75942;BME280;64622;46.220;19.878;2024-03-06T00:37:32;100248.09;;;7.77;100.00
75942;BME280;64622;46.220;19.878;2024-03-06T00:39:59;100249.47;;;7.80;100.00
75942;BME280;64622;46.220;19.878;2024-03-06T00:42:25;100257.34;;;7.82;100.00
75942;BME280;64622;46.220;19.878;2024-03-06T00:44:52;100255.22;;;7.85;100.00
75942;BME280;64622;46.220;19.878;2024-03-06T00:47:19;100245.69;;;7.83;100.00
75942;BME280;64622;46.220;19.878;2024-03-06T00:49:47;100251.75;;;7.85;100.00
75942;BME280;64622;46.220;19.878;2024-03-06T00:52:14;100243.06;;;7.73;100.00
75942;BME280;64622;46.220;19.878;2024-03-06T00:54:40;100248.66;;;7.70;100.00
75942;BME280;64622;46.220;19.878;2024-03-06T00:57:07;100237.75;;;7.64;100.00
75942;BME280;64622;46.220;19.878;2024-03-06T00:59:33;100244.19;;;7.62;100.00
75942;BME280;64622;46.220;19.878;2024-03-06T01:02:00;100242.53;;;7.61;100.00
75942;BME280;64622;46.220;19.878;2024-03-06T01:04:27;100245.31;;;7.59;100.00
75942;BME280;64622;46.220;19.878;2024-03-06T01:06:53;100251.22;;;7.53;100.00
75942;BME280;64622;46.220;19.878;2024-03-06T01:09:20;100252.19;;;7.43;100.00
75942;BME280;64622;46.220;19.878;2024-03-06T01:11:47;100261.03;;;7.43;100.00
75942;BME280;64622;46.220;19.878;2024-03-06T01:14:14;100252.03;;;7.34;100.00
75942;BME280;64622;46.220;19.878;2024-03-06T01:16:41;100259.06;;;7.36;100.00
75942;BME280;64622;46.220;19.878;2024-03-06T01:19:07;100253.44;;;7.29;100.00
75942;BME280;64622;46.220;19.878;2024-03-06T01:21:33;100250.06;;;7.27;100.00
75942;BME280;64622;46.220;19.878;2024-03-06T01:24:01;100242.22;;;7.16;100.00
75942;BME280;64622;46.220;19.878;2024-03-06T01:26:27;100255.38;;;7.18;100.00
75942;BME280;64622;46.220;19.878;2024-03-06T01:28:54;100255.09;;;7.11;100.00
75942;BME280;64622;46.220;19.878;2024-03-06T01:31:20;100258.88;;;7.08;100.00
75942;BME280;64622;46.220;19.878;2024-03-06T01:33:47;100255.53;;;7.07;100.00
75942;BME280;64622;46.220;19.878;2024-03-06T01:36:13;100246.25;;;7.01;100.00
75942;BME280;64622;46.220;19.878;2024-03-06T01:38:40;100258.72;;;7.01;100.00
75942;BME280;64622;46.220;19.878;2024-03-06T01:41:07;100259.12;;;6.96;100.00
75942;BME280;64622;46.220;19.878;2024-03-06T01:43:37;100248.19;;;6.89;100.00
75942;BME280;64622;46.220;19.878;2024-03-06T01:46:05;100253.25;;;6.93;100.00
75942;BME280;64622;46.220;19.878;2024-03-06T01:48:33;100251.56;;;6.92;100.00
75942;BME280;64622;46.220;19.878;2024-03-06T01:51:02;100250.28;;;6.86;100.00
75942;BME280;64622;46.220;19.878;2024-03-06T01:53:32;100246.81;;;6.86;100.00
75942;BME280;64622;46.220;19.878;2024-03-06T01:56:00;100248.03;;;6.82;100.00
75942;BME280;64622;46.220;19.878;2024-03-06T01:58:27;100245.22;;;6.73;100.00
75942;BME280;64622;46.220;19.878;2024-03-06T02:00:54;100248.84;;;6.72;100.00
75942;BME280;64622;46.220;19.878;2024-03-06T02:03:21;100254.44;;;6.69;100.00
75942;BME280;64622;46.220;19.878;2024-03-06T02:05:49;100246.75;;;6.67;100.00
75942;BME280;64622;46.220;19.878;2024-03-06T02:08:16;100247.41;;;6.59;100.00
75942;BME280;64622;46.220;19.878;2024-03-06T02:10:44;100244.03;;;6.57;100.00
75942;BME280;64622;46.220;19.878;2024-03-06T02:13:12;100251.44;;;6.53;100.00
75942;BME280;64622;46.220;19.878;2024-03-06T02:15:38;100260.66;;;6.49;100.00
75942;BME280;64622;46.220;19.878;2024-03-06T02:18:06;100245.97;;;6.46;100.00
75942;BME280;64622;46.220;19.878;2024-03-06T02:20:32;100253.22;;;6.43;100.00
75942;BME280;64622;46.220;19.878;2024-03-06T02:23:01;100254.31;;;6.41;100.00
75942;BME280;64622;46.220;19.878;2024-03-06T02:25:28;100258.81;;;6.41;100.00
75942;BME280;64622;46.220;19.878;2024-03-06T02:27:54;100265.50;;;6.35;100.00
75942;BME280;64622;46.220;19.878;2024-03-06T02:30:21;100272.47;;;6.27;100.00
75942;BME280;64622;46.220;19.878;2024-03-06T02:32:47;100267.53;;;6.22;100.00
75942;BME280;64622;46.220;19.878;2024-03-06T02:35:14;100256.72;;;6.14;100.00
75942;BME280;64622;46.220;19.878;2024-03-06T02:37:42;100272.78;;;6.12;100.00
75942;BME280;64622;46.220;19.878;2024-03-06T02:40:11;100262.41;;;6.09;100.00
75942;BME280;64622;46.220;19.878;2024-03-06T02:42:38;100266.59;;;6.03;100.00
75942;BME280;64622;46.220;19.878;2024-03-06T02:45:06;100275.41;;;6.03;100.00
75942;BME280;64622;46.220;19.878;2024-03-06T02:47:34;100275.00;;;6.07;100.00
75942;BME280;64622;46.220;19.878;2024-03-06T02:50:01;100271.91;;;6.03;100.00
75942;BME280;64622;46.220;19.878;2024-03-06T02:52:27;100278.72;;;5.96;100.00
75942;BME280;64622;46.220;19.878;2024-03-06T02:54:54;100272.66;;;5.93;100.00
75942;BME280;64622;46.220;19.878;2024-03-06T02:57:21;100277.00;;;5.94;100.00
75942;BME280;64622;46.220;19.878;2024-03-06T02:59:47;100271.25;;;5.89;100.00
75942;BME280;64622;46.220;19.878;2024-03-06T03:02:14;100268.59;;;5.89;100.00
75942;BME280;64622;46.220;19.878;2024-03-06T03:04:41;100271.13;;;5.91;100.00
75942;BME280;64622;46.220;19.878;2024-03-06T03:07:07;100270.13;;;5.92;100.00
75942;BME280;64622;46.220;19.878;2024-03-06T03:09:34;100276.44;;;5.91;100.00
75942;BME280;64622;46.220;19.878;2024-03-06T03:12:02;100282.16;;;5.87;100.00
75942;BME280;64622;46.220;19.878;2024-03-06T03:14:29;100286.34;;;5.89;100.00
75942;BME280;64622;46.220;19.878;2024-03-06T03:16:56;100286.59;;;5.86;100.00
75942;BME280;64622;46.220;19.878;2024-03-06T03:19:22;100278.06;;;5.82;100.00
75942;BME280;64622;46.220;19.878;2024-03-06T03:21:49;100275.16;;;5.86;100.00
75942;BME280;64622;46.220;19.878;2024-03-06T03:24:16;100279.84;;;5.82;100.00
75942;BME280;64622;46.220;19.878;2024-03-06T03:26:42;100278.66;;;5.75;100.00
75942;BME280;64622;46.220;19.878;2024-03-06T03:29:09;100281.97;;;5.67;100.00
75942;BME280;64622;46.220;19.878;2024-03-06T03:31:36;100279.56;;;5.64;100.00
75942;BME280;64622;46.220;19.878;2024-03-06T03:34:05;100284.03;;;5.64;100.00
75942;BME280;64622;46.220;19.878;2024-03-06T03:36:32;100285.25;;;5.60;100.00
75942;BME280;64622;46.220;19.878;2024-03-06T03:38:59;100296.22;;;5.66;100.00
75942;BME280;64622;46.220;19.878;2024-03-06T03:41:26;100289.88;;;5.58;100.00
75942;BME280;64622;46.220;19.878;2024-03-06T03:43:52;100284.69;;;5.56;100.00
75942;BME280;64622;46.220;19.878;2024-03-06T03:46:19;100285.66;;;5.55;100.00
75942;BME280;64622;46.220;19.878;2024-03-06T03:48:46;100285.81;;;5.43;100.00
75942;BME280;64622;46.220;19.878;2024-03-06T03:51:12;100295.75;;;5.30;100.00
75942;BME280;64622;46.220;19.878;2024-03-06T03:53:39;100299.03;;;5.22;100.00
75942;BME280;64622;46.220;19.878;2024-03-06T03:56:06;100301.19;;;5.28;100.00
75942;BME280;64622;46.220;19.878;2024-03-06T03:58:32;100301.44;;;5.25;100.00
75942;BME280;64622;46.220;19.878;2024-03-06T04:00:59;100304.34;;;5.22;100.00
75942;BME280;64622;46.220;19.878;2024-03-06T04:03:26;100308.09;;;5.20;100.00
75942;BME280;64622;46.220;19.878;2024-03-06T04:05:53;100306.19;;;5.00;100.00
75942;BME280;64622;46.220;19.878;2024-03-06T04:08:19;100315.84;;;5.01;100.00
75942;BME280;64622;46.220;19.878;2024-03-06T04:10:46;100311.66;;;4.87;100.00
75942;BME280;64622;46.220;19.878;2024-03-06T04:13:15;100309.38;;;4.83;100.00
75942;BME280;64622;46.220;19.878;2024-03-06T04:15:42;100316.09;;;4.98;100.00
75942;BME280;64622;46.220;19.878;2024-03-06T04:18:08;100309.72;;;5.00;100.00
75942;BME280;64622;46.220;19.878;2024-03-06T04:20:35;100317.31;;;4.94;100.00
75942;BME280;64622;46.220;19.878;2024-03-06T04:23:01;100315.63;;;4.93;100.00
75942;BME280;64622;46.220;19.878;2024-03-06T04:25:29;100318.78;;;4.87;100.00
75942;BME280;64622;46.220;19.878;2024-03-06T04:27:55;100322.37;;;4.86;100.00
75942;BME280;64622;46.220;19.878;2024-03-06T04:30:22;100325.63;;;4.78;100.00
75942;BME280;64622;46.220;19.878;2024-03-06T04:32:49;100322.53;;;4.84;100.00
75942;BME280;64622;46.220;19.878;2024-03-06T04:35:15;100333.84;;;4.86;100.00
75942;BME280;64622;46.220;19.878;2024-03-06T04:37:42;100338.03;;;4.89;100.00
75942;BME280;64622;46.220;19.878;2024-03-06T04:40:10;100340.59;;;4.79;100.00
75942;BME280;64622;46.220;19.878;2024-03-06T04:42:37;100343.13;;;4.59;100.00
75942;BME280;64622;46.220;19.878;2024-03-06T04:45:10;100348.91;;;4.53;100.00
75942;BME280;64622;46.220;19.878;2024-03-06T04:47:37;100342.16;;;4.38;100.00
75942;BME280;64622;46.220;19.878;2024-03-06T04:50:08;100351.44;;;4.54;100.00
75942;BME280;64622;46.220;19.878;2024-03-06T04:52:36;100342.16;;;4.49;100.00
75942;BME280;64622;46.220;19.878;2024-03-06T04:55:04;100339.13;;;4.42;100.00
75942;BME280;64622;46.220;19.878;2024-03-06T04:57:30;100346.97;;;4.44;100.00
75942;BME280;64622;46.220;19.878;2024-03-06T04:59:57;100346.25;;;4.53;100.00
75942;BME280;64622;46.220;19.878;2024-03-06T05:02:25;100348.66;;;4.56;100.00
75942;BME280;64622;46.220;19.878;2024-03-06T05:04:52;100354.69;;;4.58;100.00
75942;BME280;64622;46.220;19.878;2024-03-06T05:07:18;100340.84;;;4.54;100.00
75942;BME280;64622;46.220;19.878;2024-03-06T05:09:45;100353.34;;;4.52;100.00
75942;BME280;64622;46.220;19.878;2024-03-06T05:12:12;100345.66;;;4.49;100.00
75942;BME280;64622;46.220;19.878;2024-03-06T05:14:38;100345.87;;;4.46;100.00
75942;BME280;64622;46.220;19.878;2024-03-06T05:17:05;100348.41;;;4.48;100.00
75942;BME280;64622;46.220;19.878;2024-03-06T05:19:32;100355.41;;;4.49;100.00
75942;BME280;64622;46.220;19.878;2024-03-06T05:21:58;100348.31;;;4.49;100.00
75942;BME280;64622;46.220;19.878;2024-03-06T05:24:26;100354.31;;;4.51;100.00
75942;BME280;64622;46.220;19.878;2024-03-06T05:26:52;100345.87;;;4.46;100.00
75942;BME280;64622;46.220;19.878;2024-03-06T05:29:19;100351.78;;;4.39;100.00
75942;BME280;64622;46.220;19.878;2024-03-06T05:31:46;100349.22;;;4.37;100.00
75942;BME280;64622;46.220;19.878;2024-03-06T05:34:12;100352.75;;;4.38;100.00
75942;BME280;64622;46.220;19.878;2024-03-06T05:36:39;100356.22;;;4.38;100.00
75942;BME280;64622;46.220;19.878;2024-03-06T05:39:06;100354.91;;;4.44;100.00
75942;BME280;64622;46.220;19.878;2024-03-06T05:41:39;100359.03;;;4.59;100.00
75942;BME280;64622;46.220;19.878;2024-03-06T05:44:08;100348.19;;;4.73;100.00
75942;BME280;64622;46.220;19.878;2024-03-06T05:46:35;100354.31;;;4.95;100.00
75942;BME280;64622;46.220;19.878;2024-03-06T05:49:02;100353.72;;;5.03;100.00
75942;BME280;64622;46.220;19.878;2024-03-06T05:51:30;100355.16;;;5.07;100.00
75942;BME280;64622;46.220;19.878;2024-03-06T05:53:56;100352.59;;;5.16;100.00
75942;BME280;64622;46.220;19.878;2024-03-06T05:56:23;100368.56;;;5.37;100.00
75942;BME280;64622;46.220;19.878;2024-03-06T05:58:50;100363.00;;;5.51;100.00
75942;BME280;64622;46.220;19.878;2024-03-06T06:01:17;100365.87;;;5.59;100.00
75942;BME280;64622;46.220;19.878;2024-03-06T06:03:48;100354.09;;;5.83;100.00
75942;BME280;64622;46.220;19.878;2024-03-06T06:06:15;100354.91;;;5.95;100.00
75942;BME280;64622;46.220;19.878;2024-03-06T06:08:42;100366.81;;;6.21;100.00
75942;BME280;64622;46.220;19.878;2024-03-06T06:11:11;100367.28;;;6.47;100.00
75942;BME280;64622;46.220;19.878;2024-03-06T06:13:38;100365.13;;;6.61;100.00
75942;BME280;64622;46.220;19.878;2024-03-06T06:16:08;100354.34;;;6.62;100.00
75942;BME280;64622;46.220;19.878;2024-03-06T06:18:34;100360.91;;;6.88;100.00
75942;BME280;64622;46.220;19.878;2024-03-06T06:21:01;100367.19;;;7.18;100.00
75942;BME280;64622;46.220;19.878;2024-03-06T06:23:28;100367.81;;;7.49;100.00
75942;BME280;64622;46.220;19.878;2024-03-06T06:25:55;100377.62;;;7.58;100.00
75942;BME280;64622;46.220;19.878;2024-03-06T06:28:22;100369.50;;;7.69;100.00
75942;BME280;64622;46.220;19.878;2024-03-06T06:30:49;100370.38;;;7.70;100.00
75942;BME280;64622;46.220;19.878;2024-03-06T06:33:19;100368.53;;;7.89;100.00
75942;BME280;64622;46.220;19.878;2024-03-06T06:35:47;100363.63;;;8.23;100.00
75942;BME280;64622;46.220;19.878;2024-03-06T06:38:14;100366.44;;;8.31;100.00
75942;BME280;64622;46.220;19.878;2024-03-06T06:40:40;100366.69;;;8.57;100.00
75942;BME280;64622;46.220;19.878;2024-03-06T06:43:07;100358.09;;;8.63;100.00
75942;BME280;64622;46.220;19.878;2024-03-06T06:45:34;100361.06;;;8.96;100.00
75942;BME280;64622;46.220;19.878;2024-03-06T06:48:00;100352.53;;;8.83;100.00
75942;BME280;64622;46.220;19.878;2024-03-06T06:50:27;100357.38;;;8.70;100.00
75942;BME280;64622;46.220;19.878;2024-03-06T06:52:53;100352.13;;;8.78;100.00
75942;BME280;64622;46.220;19.878;2024-03-06T06:55:20;100349.41;;;8.97;100.00
75942;BME280;64622;46.220;19.878;2024-03-06T06:57:49;100350.31;;;9.06;100.00
75942;BME280;64622;46.220;19.878;2024-03-06T07:00:17;100349.50;;;9.32;100.00
75942;BME280;64622;46.220;19.878;2024-03-06T07:02:45;100360.06;;;9.51;100.00
75942;BME280;64622;46.220;19.878;2024-03-06T07:05:11;100355.28;;;9.90;100.00
75942;BME280;64622;46.220;19.878;2024-03-06T07:07:38;100349.88;;;10.17;100.00
75942;BME280;64622;46.220;19.878;2024-03-06T07:10:05;100356.56;;;10.03;100.00
75942;BME280;64622;46.220;19.878;2024-03-06T07:12:32;100356.56;;;10.03;100.00
75942;BME280;64622;46.220;19.878;2024-03-06T07:14:59;100357.44;;;10.21;100.00
75942;BME280;64622;46.220;19.878;2024-03-06T07:17:26;100357.88;;;10.60;100.00
75942;BME280;64622;46.220;19.878;2024-03-06T07:19:52;100363.31;;;10.76;100.00
75942;BME280;64622;46.220;19.878;2024-03-06T07:22:19;100369.81;;;10.99;100.00
75942;BME280;64622;46.220;19.878;2024-03-06T07:24:46;100365.66;;;11.04;100.00
75942;BME280;64622;46.220;19.878;2024-03-06T07:27:13;100363.97;;;11.03;100.00
75942;BME280;64622;46.220;19.878;2024-03-06T07:29:39;100370.38;;;11.52;100.00
75942;BME280;64622;46.220;19.878;2024-03-06T07:32:06;100373.91;;;11.52;100.00
75942;BME280;64622;46.220;19.878;2024-03-06T07:34:33;100371.84;;;11.38;100.00
75942;BME280;64622;46.220;19.878;2024-03-06T07:37:00;100376.69;;;11.76;100.00
75942;BME280;64622;46.220;19.878;2024-03-06T07:39:27;100372.87;;;11.45;100.00
75942;BME280;64622;46.220;19.878;2024-03-06T07:41:53;100367.75;;;11.60;100.00
75942;BME280;64622;46.220;19.878;2024-03-06T07:44:20;100372.56;;;12.14;100.00
75942;BME280;64622;46.220;19.878;2024-03-06T07:46:47;100377.75;;;12.31;100.00
75942;BME280;64622;46.220;19.878;2024-03-06T07:49:15;100374.34;;;12.69;100.00
75942;BME280;64622;46.220;19.878;2024-03-06T07:51:41;100377.41;;;12.10;100.00
75942;BME280;64622;46.220;19.878;2024-03-06T07:54:08;100381.44;;;12.30;100.00
75942;BME280;64622;46.220;19.878;2024-03-06T07:56:35;100386.13;;;12.36;100.00
75942;BME280;64622;46.220;19.878;2024-03-06T07:59:01;100379.25;;;12.10;100.00
75942;BME280;64622;46.220;19.878;2024-03-06T08:01:28;100390.16;;;12.56;100.00
75942;BME280;64622;46.220;19.878;2024-03-06T08:03:59;100385.72;;;12.95;100.00
75942;BME280;64622;46.220;19.878;2024-03-06T08:06:26;100389.31;;;12.56;100.00
75942;BME280;64622;46.220;19.878;2024-03-06T08:08:55;100392.84;;;12.40;100.00
75942;BME280;64622;46.220;19.878;2024-03-06T08:11:23;100380.22;;;12.01;100.00
75942;BME280;64622;46.220;19.878;2024-03-06T08:13:57;100390.97;;;12.01;100.00
75942;BME280;64622;46.220;19.878;2024-03-06T08:16:24;100385.94;;;11.90;100.00
75942;BME280;64622;46.220;19.878;2024-03-06T08:18:50;100395.38;;;12.34;100.00
75942;BME280;64622;46.220;19.878;2024-03-06T08:21:17;100393.03;;;12.23;100.00
75942;BME280;64622;46.220;19.878;2024-03-06T08:23:46;100398.72;;;12.60;100.00
75942;BME280;64622;46.220;19.878;2024-03-06T08:26:13;100399.06;;;12.49;100.00
75942;BME280;64622;46.220;19.878;2024-03-06T08:28:40;100404.91;;;12.76;100.00
75942;BME280;64622;46.220;19.878;2024-03-06T08:31:07;100407.94;;;12.41;100.00
75942;BME280;64622;46.220;19.878;2024-03-06T08:33:34;100405.88;;;12.91;100.00
75942;BME280;64622;46.220;19.878;2024-03-06T08:36:01;100412.22;;;13.22;100.00
75942;BME280;64622;46.220;19.878;2024-03-06T08:38:28;100418.06;;;13.26;100.00
75942;BME280;64622;46.220;19.878;2024-03-06T08:40:55;100413.16;;;13.37;100.00
75942;BME280;64622;46.220;19.878;2024-03-06T08:43:22;100414.97;;;12.82;100.00
75942;BME280;64622;46.220;19.878;2024-03-06T08:45:48;100414.50;;;12.63;100.00
75942;BME280;64622;46.220;19.878;2024-03-06T08:48:15;100416.09;;;12.96;100.00
75942;BME280;64622;46.220;19.878;2024-03-06T08:50:41;100413.94;;;12.91;100.00
75942;BME280;64622;46.220;19.878;2024-03-06T08:53:08;100413.63;;;13.02;100.00
75942;BME280;64622;46.220;19.878;2024-03-06T08:55:35;100413.78;;;13.01;100.00
75942;BME280;64622;46.220;19.878;2024-03-06T08:58:02;100411.94;;;12.69;100.00
75942;BME280;64622;46.220;19.878;2024-03-06T09:00:28;100421.97;;;13.15;100.00
75942;BME280;64622;46.220;19.878;2024-03-06T09:02:55;100422.75;;;13.32;100.00
75942;BME280;64622;46.220;19.878;2024-03-06T09:05:22;100413.87;;;13.31;100.00
75942;BME280;64622;46.220;19.878;2024-03-06T09:07:49;100419.19;;;13.47;100.00
75942;BME280;64622;46.220;19.878;2024-03-06T09:10:15;100419.81;;;12.95;100.00
75942;BME280;64622;46.220;19.878;2024-03-06T09:12:42;100419.47;;;12.82;100.00
75942;BME280;64622;46.220;19.878;2024-03-06T09:15:09;100417.59;;;13.14;100.00
75942;BME280;64622;46.220;19.878;2024-03-06T09:17:36;100421.56;;;13.34;100.00
75942;BME280;64622;46.220;19.878;2024-03-06T09:20:03;100417.47;;;13.00;100.00
75942;BME280;64622;46.220;19.878;2024-03-06T09:22:40;100421.84;;;12.85;100.00
75942;BME280;64622;46.220;19.878;2024-03-06T09:25:07;100415.56;;;13.24;100.00
75942;BME280;64622;46.220;19.878;2024-03-06T09:27:34;100420.00;;;12.69;100.00
75942;BME280;64622;46.220;19.878;2024-03-06T09:30:01;100417.47;;;13.00;100.00
75942;BME280;64622;46.220;19.878;2024-03-06T09:32:29;100424.53;;;13.09;100.00
75942;BME280;64622;46.220;19.878;2024-03-06T09:34:56;100419.47;;;13.06;100.00
75942;BME280;64622;46.220;19.878;2024-03-06T09:37:22;100415.31;;;12.71;100.00
75942;BME280;64622;46.220;19.878;2024-03-06T09:39:49;100416.78;;;12.82;100.00
75942;BME280;64622;46.220;19.878;2024-03-06T09:42:17;100414.13;;;12.66;100.00
75942;BME280;64622;46.220;19.878;2024-03-06T09:44:44;100414.81;;;12.68;100.00
75942;BME280;64622;46.220;19.878;2024-03-06T09:47:13;100410.13;;;12.70;100.00
75942;BME280;64622;46.220;19.878;2024-03-06T09:49:43;100413.63;;;12.62;100.00
75942;BME280;64622;46.220;19.878;2024-03-06T09:52:10;100415.94;;;13.13;100.00
75942;BME280;64622;46.220;19.878;2024-03-06T09:54:37;100415.41;;;13.18;100.00
75942;BME280;64622;46.220;19.878;2024-03-06T09:57:06;100410.81;;;13.42;100.00
75942;BME280;64622;46.220;19.878;2024-03-06T09:59:32;100404.25;;;13.45;100.00
75942;BME280;64622;46.220;19.878;2024-03-06T10:02:00;100406.31;;;13.65;100.00
75942;BME280;64622;46.220;19.878;2024-03-06T10:04:33;100407.09;;;14.04;100.00
75942;BME280;64622;46.220;19.878;2024-03-06T10:07:03;100403.03;;;14.08;100.00
75942;BME280;64622;46.220;19.878;2024-03-06T10:09:31;100399.47;;;14.61;100.00
75942;BME280;64622;46.220;19.878;2024-03-06T10:11:59;100395.19;;;14.29;100.00
75942;BME280;64622;46.220;19.878;2024-03-06T10:14:26;100398.59;;;14.46;100.00
75942;BME280;64622;46.220;19.878;2024-03-06T10:16:56;100405.78;;;14.68;100.00
75942;BME280;64622;46.220;19.878;2024-03-06T10:19:25;100399.25;;;14.99;100.00
75942;BME280;64622;46.220;19.878;2024-03-06T10:21:54;100394.06;;;15.12;98.56
75942;BME280;64622;46.220;19.878;2024-03-06T10:24:26;100399.87;;;16.45;89.49
75942;BME280;64622;46.220;19.878;2024-03-06T10:26:58;100392.19;;;16.27;85.72
75942;BME280;64622;46.220;19.878;2024-03-06T10:29:29;100390.50;;;16.05;88.94
75942;BME280;64622;46.220;19.878;2024-03-06T10:31:59;100390.22;;;16.00;88.74
75942;BME280;64622;46.220;19.878;2024-03-06T10:34:27;100391.59;;;15.75;90.10
75942;BME280;64622;46.220;19.878;2024-03-06T10:36:57;100382.50;;;15.62;91.37
75942;BME280;64622;46.220;19.878;2024-03-06T10:39:24;100382.25;;;14.99;95.78
75942;BME280;64622;46.220;19.878;2024-03-06T10:41:53;100381.78;;;15.39;94.30
75942;BME280;64622;46.220;19.878;2024-03-06T10:44:27;100390.53;;;15.12;94.34
75942;BME280;64622;46.220;19.878;2024-03-06T10:47:01;100382.63;;;16.46;89.00
75942;BME280;64622;46.220;19.878;2024-03-06T10:49:30;100380.06;;;18.08;77.76
75942;BME280;64622;46.220;19.878;2024-03-06T10:52:06;100385.78;;;18.84;72.55
75942;BME280;64622;46.220;19.878;2024-03-06T10:54:35;100386.16;;;18.42;68.73
75942;BME280;64622;46.220;19.878;2024-03-06T10:57:03;100382.41;;;19.28;65.57
75942;BME280;64622;46.220;19.878;2024-03-06T10:59:30;100380.97;;;17.34;68.64
75942;BME280;64622;46.220;19.878;2024-03-06T11:01:59;100386.91;;;16.82;74.45
75942;BME280;64622;46.220;19.878;2024-03-06T11:04:30;100388.94;;;17.08;76.16
75942;BME280;64622;46.220;19.878;2024-03-06T11:07:04;100370.56;;;16.97;74.54
75942;BME280;64622;46.220;19.878;2024-03-06T11:09:34;100370.69;;;16.89;75.24
75942;BME280;64622;46.220;19.878;2024-03-06T11:12:02;100375.75;;;17.60;73.32
75942;BME280;64622;46.220;19.878;2024-03-06T11:14:31;100357.31;;;17.96;71.13
75942;BME280;64622;46.220;19.878;2024-03-06T11:19:30;100366.25;;;17.96;69.07
75942;BME280;64622;46.220;19.878;2024-03-06T11:21:58;100358.25;;;18.48;66.47
75942;BME280;64622;46.220;19.878;2024-03-06T11:24:32;100360.38;;;17.73;70.04
75942;BME280;64622;46.220;19.878;2024-03-06T11:27:03;100358.94;;;17.77;71.66
75942;BME280;64622;46.220;19.878;2024-03-06T11:30:06;100356.44;;;17.35;74.30
75942;BME280;64622;46.220;19.878;2024-03-06T11:32:58;100350.72;;;18.31;69.55
75942;BME280;64622;46.220;19.878;2024-03-06T11:35:30;100334.63;;;18.16;67.82
75942;BME280;64622;46.220;19.878;2024-03-06T11:37:59;100339.19;;;19.77;63.59
75942;BME280;64622;46.220;19.878;2024-03-06T11:40:26;100337.03;;;16.91;69.12
75942;BME280;64622;46.220;19.878;2024-03-06T11:42:53;100336.63;;;17.28;77.29
75942;BME280;64622;46.220;19.878;2024-03-06T11:45:20;100329.63;;;18.07;71.92
75942;BME280;64622;46.220;19.878;2024-03-06T11:47:59;100313.38;;;18.13;68.99
75942;BME280;64622;46.220;19.878;2024-03-06T11:50:27;100316.09;;;18.07;69.19
75942;BME280;64622;46.220;19.878;2024-03-06T11:52:54;100320.25;;;18.29;70.48
75942;BME280;64622;46.220;19.878;2024-03-06T11:55:23;100313.56;;;18.90;65.21
75942;BME280;64622;46.220;19.878;2024-03-06T11:57:53;100311.34;;;19.50;62.97
75942;BME280;64622;46.220;19.878;2024-03-06T12:00:23;100311.91;;;19.59;61.51
75942;BME280;64622;46.220;19.878;2024-03-06T12:02:50;100307.69;;;19.69;61.50
75942;BME280;64622;46.220;19.878;2024-03-06T12:05:18;100311.34;;;19.50;61.35
75942;BME280;64622;46.220;19.878;2024-03-06T12:07:50;100304.59;;;19.66;59.88
75942;BME280;64622;46.220;19.878;2024-03-06T12:10:18;100302.81;;;20.15;59.83
75942;BME280;64622;46.220;19.878;2024-03-06T12:12:44;100296.84;;;19.63;59.23
75942;BME280;64622;46.220;19.878;2024-03-06T12:15:13;100297.44;;;19.71;59.46
75942;BME280;64622;46.220;19.878;2024-03-06T12:17:45;100296.06;;;20.24;58.70
75942;BME280;64622;46.220;19.878;2024-03-06T12:20:13;100305.88;;;19.94;58.13
75942;BME280;64622;46.220;19.878;2024-03-06T12:22:52;100302.59;;;19.86;57.91
75942;BME280;64622;46.220;19.878;2024-03-06T12:25:24;100294.66;;;19.40;57.96
75942;BME280;64622;46.220;19.878;2024-03-06T12:27:54;100295.84;;;19.57;58.42
75942;BME280;64622;46.220;19.878;2024-03-06T12:30:22;100296.69;;;19.89;57.29
75942;BME280;64622;46.220;19.878;2024-03-06T12:33:02;100294.97;;;20.01;57.36
75942;BME280;64622;46.220;19.878;2024-03-06T12:35:32;100283.41;;;19.43;57.30
75942;BME280;64622;46.220;19.878;2024-03-06T12:37:59;100295.91;;;19.82;55.61
75942;BME280;64622;46.220;19.878;2024-03-06T12:40:26;100285.47;;;19.79;56.63
75942;BME280;64622;46.220;19.878;2024-03-06T12:42:55;100279.84;;;19.80;57.10